Terminal Aerodrome Forecast
Issued by NWS

Home | Current Version | Previous Version | Text Only | Print | Product List | Glossary On
Versions: 1 2 3 4 5 6 7 8 9 10 11 12 13 14 15 16 17
000
FTUS43 KMPX 291700
TAFRWF
TAF
KRWF 291725Z 2918/3018 20008KT P6SM -SHRA VCTS BKN035CB OVC050
      TEMPO 2918/2921 4SM -TSRA BKN025CB
     FM292100 27004KT P6SM BKN020 BKN050
     FM300300 30004KT 6SM BR SCT007 OVC013
     FM300800 32005KT 2SM BR OVC004
     FM301500 31005KT 5SM BR SCT012=

USA.gov is the U.S. government's official web portal to all federal, state and local government web resources and services.